ウェーク島空軍基地の過去48時間の天気

ウェーク島空軍基地 (Wake Island Army Airfield Airport)

現在時刻: 1/22 08:40 +12 (1/21 20:40 UTC) 以下の時間は現地時間です。

過去48時間のMETAR気象情報
時間 風向 風速(m/s) 視程 気温(℃) 湿度(%) 気圧(hPa) 天気現象
22 07:58 2 10km以上 23 1 1013.5
22 07:48 東北東 2 10km以上 23 1 1013.5
22 07:23 2 10km以上 23 1 1013.5
22 06:58 静穏 0 10km以上 24 1 1013.1
22 06:28 南南東 2 10km以上 24 1 1012.8
22 05:58 静穏 0 10km以上 24 1 1012.4
22 04:58 静穏 0 10km以上 23 1 1012.4
22 04:48 静穏 0 10km以上 23 1 1012.1
22 04:38 静穏 0 8000m 23 1 1012 煙霧
22 03:58 静穏 0 10km以上 22 1 1012.1
22 03:10 静穏 0 10km以上 23 1 1012.8
22 02:58 静穏 0 8000m 23 1 1012.8 弱い雨
22 02:49 静穏 0 10km以上 24 1 1013.1 弱い雨
22 02:23 静穏 0 10km以上 24 1 1013.1
22 01:58 静穏 0 10km以上 24 1 1013.1
22 00:58 静穏 0 10km以上 24 1 1013.5
21 23:58 2 10km以上 24 1 1013.5
21 22:58 静穏 0 10km以上 24 1 1013.8
21 21:58 2 10km以上 24 1 1013.8
21 21:13 3 10km以上 25 1 1013.8
21 21:08 2 10km以上 25 1 1013.8
21 20:58 2 10km以上 25 1 1013.8
21 20:28 東北東 4 10km以上 25 1 1013.5
21 20:23 東北東 4 10km以上 25 1 1013.5
21 20:03 東北東 3 10km以上 25 1 1013.1
21 19:58 東北東 3 10km以上 25 1 1013.1
21 18:58 北東 3 10km以上 25 1 1012.4
21 17:58 北東 3 10km以上 26 1 1012.1
21 16:58 東北東 3 10km以上 27 1 1011.8
21 15:58 北東 4 10km以上 27 1 1012.1
21 14:58 東北東 4 10km以上 27 1 1012.1
21 13:58 東北東 4 10km以上 27 1 1012.4
21 12:58 北東 4 10km以上 27 1 1013.5
21 11:58 北北東 4 10km以上 27 1 1014.1
21 10:58 北東 5 10km以上 27 1 1014.5
21 09:58 北北東 5 10km以上 26 1 1014.5
21 08:58 北北東 6 10km以上 25 1 1013.8
21 07:58 北北東 5 10km以上 24 1 1013.5
21 06:58 北北東 5 10km以上 24 1 1013.1
21 05:58 5 10km以上 24 1 1012.4
21 04:58 5 10km以上 24 1 1012.1
21 03:58 6 10km以上 24 1 1012.4
21 02:58 6 10km以上 25 1 1012.4
21 01:58 7 10km以上 25 1 1012.4
21 00:58 7 10km以上 25 1 1012.4
21 00:13 7 10km以上 25 1 1012.4
21 00:08 7 10km以上 25 1 1012.4
20 22:58 7 10km以上 25 1 1012.8
20 22:43 7 10km以上 25 1 1012.8
20 21:58 7 10km以上 25 1 1012.4
20 20:58 8 10km以上 25 1 1012.1
20 20:38 8 10km以上 25 1 1011.8
20 20:29 8 10km以上 25 1 1011.8 弱い雨
20 19:58 6 10km以上 25 1 1011.4
20 19:00 7 10km以上 24 1 1010.7
20 17:58 6 10km以上 25 1 1010.4
20 17:28 6 9000m 25 1 1010.1 煙霧
20 17:13 6 9000m 26 1 1010.1 煙霧
20 16:58 5 9000m 26 1 1010.1 煙霧
20 16:43 6 10km以上 26 1 1009.7
20 15:58 4 10km以上 26 1 1009.7
20 15:38 北北西 4 10km以上 27 1 1009.7
20 14:48 北北西 7 10km以上 27 1 1009.4
20 11:58 西 2 10km以上 28 1 1011.4
20 10:58 西 4 10km以上 28 1 1011.8
20 09:58 西北西 6 10km以上 27 1 1011.8
20 08:58 西 3 10km以上 26 1 1011.1
PWAK 211958Z AUTO 09003KT 9999 FEW025 OVC060 23/M36 A2991 RMK AO2 SLP135
PWAK 211948Z AUTO 07004KT 9999 SCT025 OVC060 23/M36 A2991 RMK AO2 SLP135
PWAK 211923Z AUTO 09003KT 9999 FEW012 BKN028 OVC038 23/M36 A2991 RMK AO2 CIG 028V039 BKN V SCT SLP135
PWAK 211858Z AUTO 00000KT 9999 FEW013 OVC039 24/M36 A2990 RMK AO2 SLP131
PWAK 211828Z AUTO 15003KT 9999 SCT029 OVC034 24/M36 A2989 RMK AO2 SLP128
PWAK 211758Z AUTO 00000KT 9999 FEW018 BKN025 OVC033 24/M36 A2988 RMK AO2 CIG 025V034 SLP124 55004
PWAK 211658Z AUTO 00000KT 9999 BKN035 23/M36 A2988 RMK AO2 SLP124
PWAK 211648Z AUTO 00000KT 9999 SCT036 23/M36 A2987 RMK AO2 SLP121
PWAK 211638Z AUTO 00000KT 8000 R10/1500 HZ CLR 23/M36 A2987
PWAK 211558Z AUTO 00000KT 9999 SCT038 BKN060 22/M37 A2987 RMK AO2 RAE05 SLP121
PWAK 211510Z AUTO 00000KT 9999 FEW007 SCT017 BKN031 23/M36 A2989 RMK AO2 RAE05 SLP128 $
PWAK 211458Z AUTO 00000KT 8000 R10/1400 -RA SCT007 BKN021 OVC027 23/M36 A2989 RMK AO2 RAB49 BKN V OVC SLP128 57006
PWAK 211449Z AUTO 00000KT 9999 -RA FEW007 BKN021 OVC025 24/M36 A2990 RMK AO2 RAB49 BKN V OVC SLP131 57005 $
PWAK 211423Z AUTO 00000KT 9999 FEW008 SCT016 BKN025 OVC034 24/M36 A2990 RMK AO2 CIG 025V034 BKN V SCT SLP131
PWAK 211358Z AUTO 00000KT 9999 FEW025 OVC032 24/M35 A2990 RMK AO2 SLP131
PWAK 211258Z AUTO 00000KT 9999 OVC036 24/M35 A2991 RMK AO2 SLP135
PWAK 211158Z AUTO 08003KT 9999 BKN039 24/M36 A2991 RMK AO2 SLP135 58002
PWAK 211058Z AUTO 00000KT 9999 BKN040 24/M36 A2992 RMK AO2 SLP138
PWAK 210958Z AUTO 09003KT 9999 SCT026 SCT033 OVC043 24/M35 A2992 RMK AO2 SLP138
PWAK 210913Z AUTO 09005KT 9999 OVC029 25/M35 A2992 RMK AO2 SLP138
PWAK 210908Z AUTO 09004KT 9999 OVC030 25/M35 A2992 RMK AO2 SLP138
PWAK 210858Z AUTO 09003KT 9999 OVC029 25/M35 A2992 RMK AO2 SLP138 52017
PWAK 210828Z AUTO 06008KT 9999 FEW022 BKN029 OVC034 25/M35 A2991 RMK AO2 SLP135
PWAK 210823Z AUTO 06007KT 9999 FEW022 OVC031 25/M35 A2991 RMK AO2 SLP135
PWAK 210803Z AUTO 07006KT 9999 OVC033 25/M35 A2990 RMK AO2 SLP131 $
PWAK 210758Z AUTO 06006KT 9999 BKN029 OVC037 25/M35 A2990 RMK AO2 CIG 029V038 BKN V FEW SLP131
PWAK 210658Z AUTO 05006KT 9999 OVC039 25/M35 A2988 RMK AO2 SLP124
PWAK 210558Z AUTO 05006KT 9999 CLR 26/M35 A2987 RMK AO2 SLP121 55000
PWAK 210458Z AUTO 07006KT 9999 CLR 27/M34 A2986 RMK AO2 SLP118
PWAK 210358Z AUTO 05007KT 9999 CLR 27/M34 A2987 RMK AO2 SLP121
PWAK 210258Z AUTO 06007KT 9999 CLR 27/M34 A2987 RMK AO2 SLP121 57021
PWAK 210158Z AUTO 06008KT 9999 CLR 27/M34 A2988 RMK AO2 SLP124
PWAK 210058Z AUTO 04008KT 9999 CLR 27/M34 A2991 RMK AO2 SLP135
PWAK 202358Z AUTO 03007KT 9999 CLR 27/M34 A2993 RMK AO2 SLP141 50002
PWAK 202258Z AUTO 04009KT 9999 CLR 27/M34 A2994 RMK AO2 SLP145
PWAK 202158Z AUTO 03010KT 9999 CLR 26/M34 A2994 RMK AO2 SLP145
PWAK 202058Z AUTO 02011KT 9999 CLR 25/M35 A2992 RMK AO2 SLP138 52014
PWAK 201958Z AUTO 02010KT 9999 CLR 24/M36 A2991 RMK AO2 SLP135
PWAK 201858Z AUTO 02010KT 9999 CLR 24/M36 A2990 RMK AO2 SLP131
PWAK 201758Z AUTO 01009KT 9999 CLR 24/M36 A2988 RMK AO2 SLP124 55000
PWAK 201658Z AUTO 01010KT 9999 CLR 24/M36 A2987 RMK AO2 SLP121
PWAK 201558Z AUTO 36011KT 9999 FEW031 24/M35 A2988 RMK AO2 SLP124
PWAK 201458Z AUTO 35011KT 9999 BKN055 25/M35 A2988 RMK AO2 SLP124 56001
PWAK 201358Z AUTO 35014KT 9999 BKN055 25/M35 A2988 RMK AO2 SLP124
PWAK 201258Z AUTO 36013KT 9999 FEW029 OVC049 25/M35 A2988 RMK AO2 SLP124
PWAK 201213Z AUTO 36014KT 9999 SCT029 BKN036 OVC055 25/M35 A2988 RMK AO2 SLP124
PWAK 201208Z AUTO 35013KT 9999 BKN029 BKN036 OVC050 25/M35 A2988 RMK AO2 CIG 029V039 BKN029 V SCT SLP124
PWAK 201058Z AUTO 35014KT 9999 OVC033 25/M35 A2989 RMK AO2 SLP128
PWAK 201043Z AUTO 36013KT 9999 BKN029 25/M35 A2989 RMK AO2 CIG 027V032 BKN V SCT SLP128
PWAK 200958Z AUTO 36014KT 9999 FEW026 BKN055 25/M35 A2988 RMK AO2 SLP124
PWAK 200858Z AUTO 35015KT 9999 FEW025 SCT033 BKN040 BKN050 OVC060 25/M35 A2987 RMK AO2 RAB24E38 SLP121 52017
PWAK 200838Z AUTO 35016KT 9999 SCT023 SCT028 OVC050 25/M35 A2986 RMK AO2 RAB24E38 SLP118 52017 $
PWAK 200829Z AUTO 35015KT 9999 -RA FEW006 BKN022 BKN045 OVC055 25/M35 A2986 RMK AO2 RAB24 CIG 022V055 BKN022 V FEW SLP118 52016 $
PWAK 200758Z AUTO 35012KT 9999 BKN036 OVC055 25/M35 A2985 RMK AO2 RAE00 SLP114
PWAK 200700Z AUTO 36013KT 9999 FEW020 OVC040 24/M35 A2983 RMK AO2 RAE00 SLP107 $
PWAK 200558Z AUTO 35012KT 9999 FEW016 BKN024 OVC030 25/M35 A2982 RMK AO2 SLP104 53009
PWAK 200528Z AUTO 35012KT 9000 HZ SCT017 BKN023 BKN034 25/M35 A2981 RMK AO2 CIG 023V034 BKN023 V SCT SLP101
PWAK 200513Z AUTO 35011KT 9000 HZ SCT017 BKN023 BKN032 26/M35 A2981 RMK AO2 SLP101 $
PWAK 200458Z AUTO 35009KT 9000 HZ SCT017 BKN024 BKN031 26/M35 A2981 RMK AO2 CIG 019V031 BKN024 V SCT SLP101
PWAK 200443Z AUTO 01012KT 9999 BKN017 BKN022 BKN049 26/M35 A2980 RMK AO2 CIG 015V049 SLP097 $
PWAK 200358Z AUTO 35008KT 9999 BKN032 OVC042 26/M34 A2980 RMK AO2 SLP097
PWAK 200338Z AUTO 34008KT 9999 FEW023 SCT029 OVC039 27/M34 A2980 RMK AO2 SLP097
PWAK 200248Z AUTO 33013KT 9999 FEW013 BKN028 OVC033 27/M34 A2979 RMK AO2 SLP094
PWAK 192358Z AUTO 26004KT 9999 BKN042 BKN049 28/M33 A2985 RMK AO2 SLP114 50005
PWAK 192258Z AUTO 28007KT 9999 CLR 28/M33 A2986 RMK AO2 SLP118
PWAK 192158Z AUTO 29012KT 9999 CLR 27/M34 A2986 RMK AO2 SLP118
PWAK 192058Z AUTO 28006KT 9999 FEW035 OVC045 26/M34 A2984 RMK AO2 SLP111 52019